Terminal Aerodrome Forecast
Issued by NWS

Home | Current Version | Previous Version | Text Only | Print | Product List | Glossary On
Versions: 1 2 3 4 5 6 7 8 9 10 11 12 13 14 15 16 17 18 19 20 21 22 23 24 25
887
FTUS43 KDLH 250535
TAFHIB
TAF
KHIB 250535Z 2506/2606 32013KT P6SM SCT025
     FM251200 32012KT P6SM SCT050
     FM252000 29010KT P6SM SCT050 BKN080
     FM260200 28005KT 6SM -SN OVC050=

USA.gov is the U.S. government's official web portal to all federal, state and local government web resources and services.